»·PEaware :: N112VV KMSO-7S0

N112VV :: KMSO-7S0

FLIGHT INFORMATION

Flight Status: Arrived
Operator: Privately registered:
United States
More flights under this callsign
Pilot: Anonymous 27337 (27337)
Aircraft: Unknown
(N102)
More flights by this aircraft type
Origin: KMSO Missoula Intl
United States
Destination: 7S0 Ronan
United States
More flights between these airports :: More routes between these airports
Route: GRZLY3 MSO V231 ARLEE
File this flight plan on PilotEdge
Remarks: odp
Altitude:
(Current/Filed)
11,000ft
Speed:
(Current/Filed)
165kts
Departed: 19-Nov-21 12:57 PM
Arrived: 19-Nov-21 01:38 PM
Distance/Time
Traveled:
39nm/0:41
Distance/Time
To Go:
Arrived

Flight Plot

Page will automatically refresh every two minutes.

Flight plan parsing failed; only flown route is shown


Map Options




Map Legend


Flown Route
Filed Route
Departure Airport
Arrival Airport
Navaid (VOR, NDB)
Fix

Horizontal Profiles

Position Reports

Time Latitude Longitude Heading Altitude Ground
Speed
19-Nov-21 12:42 46.914183 -114.080733 269 3201ft 0kts
19-Nov-21 12:43 46.914183 -114.080733 269 3201ft 0kts
19-Nov-21 12:44 46.914183 -114.080733 269 3201ft 0kts
19-Nov-21 12:45 46.914183 -114.080733 269 3201ft 0kts
19-Nov-21 12:46 46.914183 -114.080733 269 3201ft 0kts
19-Nov-21 12:47 46.914230 -114.080961 309 3201ft 5kts
19-Nov-21 12:49 46.915212 -114.081955 234 3202ft 11kts
19-Nov-21 12:50 46.914631 -114.085424 312 3199ft 14kts
19-Nov-21 12:51 46.916827 -114.089175 311 3199ft 15kts
19-Nov-21 12:52 46.919090 -114.093078 314 3196ft 17kts
19-Nov-21 12:53 46.921446 -114.097146 313 3191ft 15kts
19-Nov-21 12:54 46.923551 -114.100671 310 3190ft 12kts
19-Nov-21 12:55 46.925229 -114.103584 312 3193ft 13kts
19-Nov-21 12:56 46.925605 -114.105428 216 3196ft 0kts
19-Nov-21 12:57 46.922902 -114.103360 131 3190ft 77kts
19-Nov-21 12:58 46.902720 -114.066814 158 4120ft 131kts
19-Nov-21 12:59 46.857804 -114.072567 187 5730ft 128kts
19-Nov-21 13:00 46.820439 -114.064460 170 7227ft 118kts
19-Nov-21 13:01 46.800687 -114.060425 161 7974ft 117kts
19-Nov-21 13:02 46.795466 -114.036799 42 8737ft 110kts
19-Nov-21 13:03 46.811553 -114.045013 305 9507ft 107kts
19-Nov-21 13:04 46.827794 -114.065952 326 10323ft 109kts
19-Nov-21 13:05 46.847986 -114.074093 345 10500ft 144kts
19-Nov-21 13:06 46.877921 -114.080641 356 10765ft 151kts
19-Nov-21 13:07 46.907812 -114.084433 353 10917ft 159kts
19-Nov-21 13:08 46.946634 -114.084072 359 10914ft 165kts
19-Nov-21 13:09 46.980048 -114.085941 356 10915ft 166kts
19-Nov-21 13:10 47.010691 -114.087903 355 10882ft 168kts
19-Nov-21 13:11 47.047172 -114.090825 359 9854ft 185kts
19-Nov-21 13:12 47.079225 -114.088861 1 9799ft 159kts
19-Nov-21 13:12 47.109565 -114.092198 352 9805ft 151kts
19-Nov-21 13:14 47.145002 -114.096748 355 9170ft 175kts
19-Nov-21 13:15 47.179372 -114.098231 358 8230ft 185kts
19-Nov-21 13:16 47.217414 -114.099957 357 7192ft 179kts
19-Nov-21 13:16 47.242921 -114.099636 0 7179ft 148kts
19-Nov-21 13:17 47.257680 -114.099262 358 7049ft 144kts
19-Nov-21 13:18 47.257680 -114.099262 358 7049ft 144kts
19-Nov-21 13:20 47.257680 -114.099262 358 7049ft 144kts
19-Nov-21 13:21 47.257680 -114.099262 358 7049ft 144kts
19-Nov-21 13:21 47.257680 -114.099262 358 7049ft 144kts
19-Nov-21 13:22 47.257680 -114.099262 358 7049ft 144kts
19-Nov-21 13:23 47.257680 -114.099262 358 7049ft 144kts
19-Nov-21 13:24 47.257680 -114.099262 358 7049ft 144kts
19-Nov-21 13:25 47.257680 -114.099262 358 7049ft 144kts
19-Nov-21 13:26 47.257680 -114.099262 358 7049ft 144kts
19-Nov-21 13:27 47.281677 -114.100196 357 7078ft 139kts
19-Nov-21 13:28 47.308283 -114.098977 357 6729ft 160kts
19-Nov-21 13:29 47.353818 -114.099887 357 6198ft 145kts
19-Nov-21 13:30 47.395663 -114.100291 356 6210ft 133kts
19-Nov-21 13:31 47.431545 -114.100266 356 5683ft 109kts
19-Nov-21 13:32 47.460786 -114.100339 356 5087ft 87kts
19-Nov-21 13:33 47.487043 -114.100514 354 4601ft 93kts
19-Nov-21 13:34 47.513721 -114.100770 355 4060ft 90kts
19-Nov-21 13:35 47.538577 -114.100854 356 3596ft 92kts
19-Nov-21 13:36 47.560447 -114.101064 355 3088ft 73kts
19-Nov-21 13:37 47.567155 -114.102774 353 3078ft 6kts
19-Nov-21 13:38 47.567186 -114.102749 85 3078ft 0kts
19-Nov-21 13:39 47.567186 -114.102749 85 3078ft 0kts

Navigation Log

Ident Type
Flight plan parsing failed, navigation log unavailable